sensor_id;sensor_type;location;lat;lon;timestamp;temperature;humidity
61253;DHT22;47127;47.516;8.596;2024-02-28T00:01:04;9.10;99.90
61253;DHT22;47127;47.516;8.596;2024-02-28T00:03:29;9.10;99.90
61253;DHT22;47127;47.516;8.596;2024-02-28T00:05:57;9.20;99.90
61253;DHT22;47127;47.516;8.596;2024-02-28T00:08:23;9.20;99.90
61253;DHT22;47127;47.516;8.596;2024-02-28T00:10:48;9.20;99.90
61253;DHT22;47127;47.516;8.596;2024-02-28T00:13:15;9.20;99.90
61253;DHT22;47127;47.516;8.596;2024-02-28T00:15:41;9.20;99.90
61253;DHT22;47127;47.516;8.596;2024-02-28T00:18:07;9.20;99.90
61253;DHT22;47127;47.516;8.596;2024-02-28T00:20:33;9.20;99.90
61253;DHT22;47127;47.516;8.596;2024-02-28T00:22:58;9.20;99.90
61253;DHT22;47127;47.516;8.596;2024-02-28T00:25:24;9.20;99.90
61253;DHT22;47127;47.516;8.596;2024-02-28T00:27:49;9.20;99.90
61253;DHT22;47127;47.516;8.596;2024-02-28T00:30:15;9.20;99.90
61253;DHT22;47127;47.516;8.596;2024-02-28T00:32:40;9.20;99.90
61253;DHT22;47127;47.516;8.596;2024-02-28T00:35:06;9.30;99.90
61253;DHT22;47127;47.516;8.596;2024-02-28T00:37:32;9.20;99.90
61253;DHT22;47127;47.516;8.596;2024-02-28T00:39:57;9.20;99.90
61253;DHT22;47127;47.516;8.596;2024-02-28T00:42:23;9.20;99.90
61253;DHT22;47127;47.516;8.596;2024-02-28T00:44:48;9.20;99.90
61253;DHT22;47127;47.516;8.596;2024-02-28T00:47:14;9.20;99.90
61253;DHT22;47127;47.516;8.596;2024-02-28T00:49:39;9.20;99.90
61253;DHT22;47127;47.516;8.596;2024-02-28T00:52:05;9.10;99.90
61253;DHT22;47127;47.516;8.596;2024-02-28T00:54:31;9.00;99.90
61253;DHT22;47127;47.516;8.596;2024-02-28T00:56:56;9.00;99.90
61253;DHT22;47127;47.516;8.596;2024-02-28T00:59:22;9.10;99.90
61253;DHT22;47127;47.516;8.596;2024-02-28T01:01:48;9.10;99.90
61253;DHT22;47127;47.516;8.596;2024-02-28T01:04:14;9.10;99.90
61253;DHT22;47127;47.516;8.596;2024-02-28T01:06:41;9.10;99.90
61253;DHT22;47127;47.516;8.596;2024-02-28T01:09:06;9.10;99.90
61253;DHT22;47127;47.516;8.596;2024-02-28T01:11:32;9.10;99.90
61253;DHT22;47127;47.516;8.596;2024-02-28T01:13:57;9.20;99.90
61253;DHT22;47127;47.516;8.596;2024-02-28T01:16:24;9.10;99.90
61253;DHT22;47127;47.516;8.596;2024-02-28T01:18:51;9.20;99.90
61253;DHT22;47127;47.516;8.596;2024-02-28T01:21:16;9.10;99.90
61253;DHT22;47127;47.516;8.596;2024-02-28T01:23:42;9.20;99.90
61253;DHT22;47127;47.516;8.596;2024-02-28T01:26:08;9.10;99.90
61253;DHT22;47127;47.516;8.596;2024-02-28T01:28:33;9.20;99.90
61253;DHT22;47127;47.516;8.596;2024-02-28T01:30:59;9.20;99.90
61253;DHT22;47127;47.516;8.596;2024-02-28T01:33:25;9.20;99.90
61253;DHT22;47127;47.516;8.596;2024-02-28T01:35:51;9.10;99.90
61253;DHT22;47127;47.516;8.596;2024-02-28T01:38:17;9.10;99.90
61253;DHT22;47127;47.516;8.596;2024-02-28T01:40:46;9.10;99.90
61253;DHT22;47127;47.516;8.596;2024-02-28T01:43:12;9.00;99.90
61253;DHT22;47127;47.516;8.596;2024-02-28T01:45:38;8.90;99.90
61253;DHT22;47127;47.516;8.596;2024-02-28T01:48:03;8.90;99.90
61253;DHT22;47127;47.516;8.596;2024-02-28T01:50:31;8.90;99.90
61253;DHT22;47127;47.516;8.596;2024-02-28T01:52:58;9.00;99.90
61253;DHT22;47127;47.516;8.596;2024-02-28T01:55:23;9.00;99.90
61253;DHT22;47127;47.516;8.596;2024-02-28T01:57:49;9.10;99.90
61253;DHT22;47127;47.516;8.596;2024-02-28T02:00:15;9.10;99.90
61253;DHT22;47127;47.516;8.596;2024-02-28T02:02:43;9.10;99.90
61253;DHT22;47127;47.516;8.596;2024-02-28T02:05:09;9.00;99.90
61253;DHT22;47127;47.516;8.596;2024-02-28T02:07:34;9.00;99.90
61253;DHT22;47127;47.516;8.596;2024-02-28T02:10:01;9.00;99.90
61253;DHT22;47127;47.516;8.596;2024-02-28T02:12:26;9.10;99.90
61253;DHT22;47127;47.516;8.596;2024-02-28T02:14:52;9.00;99.90
61253;DHT22;47127;47.516;8.596;2024-02-28T02:17:17;9.10;99.90
61253;DHT22;47127;47.516;8.596;2024-02-28T02:19:43;9.00;99.90
61253;DHT22;47127;47.516;8.596;2024-02-28T02:22:10;9.00;99.90
61253;DHT22;47127;47.516;8.596;2024-02-28T02:24:38;8.90;99.90
61253;DHT22;47127;47.516;8.596;2024-02-28T02:27:05;8.90;99.90
61253;DHT22;47127;47.516;8.596;2024-02-28T02:29:31;8.90;99.90
61253;DHT22;47127;47.516;8.596;2024-02-28T02:31:56;9.00;99.90
61253;DHT22;47127;47.516;8.596;2024-02-28T02:34:22;9.00;99.90
61253;DHT22;47127;47.516;8.596;2024-02-28T02:36:48;8.90;99.90
61253;DHT22;47127;47.516;8.596;2024-02-28T02:39:13;8.90;99.90
61253;DHT22;47127;47.516;8.596;2024-02-28T02:41:39;8.90;99.90
61253;DHT22;47127;47.516;8.596;2024-02-28T02:44:07;8.90;99.90
61253;DHT22;47127;47.516;8.596;2024-02-28T02:46:32;8.90;99.90
61253;DHT22;47127;47.516;8.596;2024-02-28T02:48:58;9.00;99.90
61253;DHT22;47127;47.516;8.596;2024-02-28T02:51:23;8.90;99.90
61253;DHT22;47127;47.516;8.596;2024-02-28T02:53:49;8.90;99.90
61253;DHT22;47127;47.516;8.596;2024-02-28T02:56:15;8.80;99.90
61253;DHT22;47127;47.516;8.596;2024-02-28T02:58:40;8.80;99.90
61253;DHT22;47127;47.516;8.596;2024-02-28T03:01:06;8.90;99.90
61253;DHT22;47127;47.516;8.596;2024-02-28T03:03:31;8.90;99.90
61253;DHT22;47127;47.516;8.596;2024-02-28T03:05:57;9.00;99.90
61253;DHT22;47127;47.516;8.596;2024-02-28T03:08:22;9.00;99.90
61253;DHT22;47127;47.516;8.596;2024-02-28T03:10:48;9.00;99.90
61253;DHT22;47127;47.516;8.596;2024-02-28T03:13:13;9.00;99.90
61253;DHT22;47127;47.516;8.596;2024-02-28T03:15:39;9.00;99.90
61253;DHT22;47127;47.516;8.596;2024-02-28T03:18:04;8.90;99.90
61253;DHT22;47127;47.516;8.596;2024-02-28T03:20:30;8.90;99.90
61253;DHT22;47127;47.516;8.596;2024-02-28T03:22:55;9.00;99.90
61253;DHT22;47127;47.516;8.596;2024-02-28T03:25:21;8.90;99.90
61253;DHT22;47127;47.516;8.596;2024-02-28T03:27:47;9.00;99.90
61253;DHT22;47127;47.516;8.596;2024-02-28T03:30:13;9.00;99.90
61253;DHT22;47127;47.516;8.596;2024-02-28T03:32:38;9.00;99.90
61253;DHT22;47127;47.516;8.596;2024-02-28T03:35:04;9.00;99.90
61253;DHT22;47127;47.516;8.596;2024-02-28T03:37:30;9.00;99.90
61253;DHT22;47127;47.516;8.596;2024-02-28T03:39:56;9.00;99.90
61253;DHT22;47127;47.516;8.596;2024-02-28T03:42:22;9.00;99.90
61253;DHT22;47127;47.516;8.596;2024-02-28T03:44:48;9.10;99.90
61253;DHT22;47127;47.516;8.596;2024-02-28T03:47:13;9.00;99.90
61253;DHT22;47127;47.516;8.596;2024-02-28T03:49:39;9.10;99.90
61253;DHT22;47127;47.516;8.596;2024-02-28T03:52:04;9.10;99.90
61253;DHT22;47127;47.516;8.596;2024-02-28T03:54:31;9.10;99.90
61253;DHT22;47127;47.516;8.596;2024-02-28T03:56:57;9.10;99.90
61253;DHT22;47127;47.516;8.596;2024-02-28T03:59:24;9.20;99.90
61253;DHT22;47127;47.516;8.596;2024-02-28T04:01:49;9.20;99.90
61253;DHT22;47127;47.516;8.596;2024-02-28T04:04:15;9.10;99.90
61253;DHT22;47127;47.516;8.596;2024-02-28T04:06:40;9.10;99.90
61253;DHT22;47127;47.516;8.596;2024-02-28T04:09:06;9.20;99.90
61253;DHT22;47127;47.516;8.596;2024-02-28T04:11:31;9.20;99.90
61253;DHT22;47127;47.516;8.596;2024-02-28T04:13:57;9.10;99.90
61253;DHT22;47127;47.516;8.596;2024-02-28T04:16:22;9.00;99.90
61253;DHT22;47127;47.516;8.596;2024-02-28T04:18:48;9.00;99.90
61253;DHT22;47127;47.516;8.596;2024-02-28T04:21:13;9.00;99.90
61253;DHT22;47127;47.516;8.596;2024-02-28T04:23:39;8.90;99.90
61253;DHT22;47127;47.516;8.596;2024-02-28T04:26:07;8.90;99.90
61253;DHT22;47127;47.516;8.596;2024-02-28T04:28:32;8.90;99.90
61253;DHT22;47127;47.516;8.596;2024-02-28T04:30:58;8.90;99.90
61253;DHT22;47127;47.516;8.596;2024-02-28T04:33:23;8.80;99.90
61253;DHT22;47127;47.516;8.596;2024-02-28T04:35:49;8.90;99.90
61253;DHT22;47127;47.516;8.596;2024-02-28T04:38:14;9.00;99.90
61253;DHT22;47127;47.516;8.596;2024-02-28T04:40:40;9.00;99.90
61253;DHT22;47127;47.516;8.596;2024-02-28T04:43:07;8.90;99.90
61253;DHT22;47127;47.516;8.596;2024-02-28T04:45:32;9.00;99.90
61253;DHT22;47127;47.516;8.596;2024-02-28T04:47:58;8.90;99.90
61253;DHT22;47127;47.516;8.596;2024-02-28T04:50:24;8.90;99.90
61253;DHT22;47127;47.516;8.596;2024-02-28T04:52:49;8.90;99.90
61253;DHT22;47127;47.516;8.596;2024-02-28T04:55:15;8.90;99.90
61253;DHT22;47127;47.516;8.596;2024-02-28T04:57:40;8.90;99.90
61253;DHT22;47127;47.516;8.596;2024-02-28T05:00:06;8.90;99.90
61253;DHT22;47127;47.516;8.596;2024-02-28T05:02:33;8.90;99.90
61253;DHT22;47127;47.516;8.596;2024-02-28T05:04:59;8.90;99.90
61253;DHT22;47127;47.516;8.596;2024-02-28T05:07:25;8.80;99.90
61253;DHT22;47127;47.516;8.596;2024-02-28T05:09:50;8.80;99.90
61253;DHT22;47127;47.516;8.596;2024-02-28T05:12:16;8.80;99.90
61253;DHT22;47127;47.516;8.596;2024-02-28T05:14:41;8.90;99.90
61253;DHT22;47127;47.516;8.596;2024-02-28T05:17:07;8.90;99.90
61253;DHT22;47127;47.516;8.596;2024-02-28T05:19:32;8.90;99.90
61253;DHT22;47127;47.516;8.596;2024-02-28T05:21:58;8.80;99.90
61253;DHT22;47127;47.516;8.596;2024-02-28T05:24:23;8.80;99.90
61253;DHT22;47127;47.516;8.596;2024-02-28T05:26:49;8.80;99.90
61253;DHT22;47127;47.516;8.596;2024-02-28T05:29:15;8.70;99.90
61253;DHT22;47127;47.516;8.596;2024-02-28T05:31:40;8.70;99.90
61253;DHT22;47127;47.516;8.596;2024-02-28T05:34:06;8.70;99.90
61253;DHT22;47127;47.516;8.596;2024-02-28T05:36:31;8.70;99.90
61253;DHT22;47127;47.516;8.596;2024-02-28T05:38:58;8.70;99.90
61253;DHT22;47127;47.516;8.596;2024-02-28T05:41:24;8.80;99.90
61253;DHT22;47127;47.516;8.596;2024-02-28T05:43:51;8.80;99.90
61253;DHT22;47127;47.516;8.596;2024-02-28T05:46:17;8.70;99.90
61253;DHT22;47127;47.516;8.596;2024-02-28T05:48:44;8.80;99.90
61253;DHT22;47127;47.516;8.596;2024-02-28T05:51:11;8.80;99.90
61253;DHT22;47127;47.516;8.596;2024-02-28T05:53:39;8.70;99.90
61253;DHT22;47127;47.516;8.596;2024-02-28T05:56:06;8.70;99.90
61253;DHT22;47127;47.516;8.596;2024-02-28T05:58:41;8.60;99.90
61253;DHT22;47127;47.516;8.596;2024-02-28T06:01:12;8.50;99.90
61253;DHT22;47127;47.516;8.596;2024-02-28T06:03:38;8.50;99.90
61253;DHT22;47127;47.516;8.596;2024-02-28T06:06:04;8.40;99.90
61253;DHT22;47127;47.516;8.596;2024-02-28T06:08:34;8.40;99.90
61253;DHT22;47127;47.516;8.596;2024-02-28T06:11:00;8.40;99.90
61253;DHT22;47127;47.516;8.596;2024-02-28T06:13:26;8.40;99.90
61253;DHT22;47127;47.516;8.596;2024-02-28T06:15:52;8.40;99.90
61253;DHT22;47127;47.516;8.596;2024-02-28T06:18:17;9.00;99.90
61253;DHT22;47127;47.516;8.596;2024-02-28T06:20:43;8.50;99.90
61253;DHT22;47127;47.516;8.596;2024-02-28T06:23:08;8.40;99.90
61253;DHT22;47127;47.516;8.596;2024-02-28T06:25:35;8.50;99.90
61253;DHT22;47127;47.516;8.596;2024-02-28T06:28:00;8.50;99.90
61253;DHT22;47127;47.516;8.596;2024-02-28T06:30:28;8.50;99.90
61253;DHT22;47127;47.516;8.596;2024-02-28T06:32:54;8.60;99.90
61253;DHT22;47127;47.516;8.596;2024-02-28T06:35:19;8.70;99.90
61253;DHT22;47127;47.516;8.596;2024-02-28T06:37:46;8.60;99.90
61253;DHT22;47127;47.516;8.596;2024-02-28T06:40:15;8.40;99.90
61253;DHT22;47127;47.516;8.596;2024-02-28T06:42:41;8.30;99.90
61253;DHT22;47127;47.516;8.596;2024-02-28T06:45:07;8.30;99.90
61253;DHT22;47127;47.516;8.596;2024-02-28T06:47:34;8.30;99.90
61253;DHT22;47127;47.516;8.596;2024-02-28T06:50:02;8.30;99.90
61253;DHT22;47127;47.516;8.596;2024-02-28T06:52:29;8.30;99.90
61253;DHT22;47127;47.516;8.596;2024-02-28T06:54:54;8.40;99.90
61253;DHT22;47127;47.516;8.596;2024-02-28T06:57:20;8.40;99.90
61253;DHT22;47127;47.516;8.596;2024-02-28T06:59:45;8.40;99.90
61253;DHT22;47127;47.516;8.596;2024-02-28T07:02:11;8.30;99.90
61253;DHT22;47127;47.516;8.596;2024-02-28T07:04:41;8.40;99.90
61253;DHT22;47127;47.516;8.596;2024-02-28T07:07:07;8.40;99.90
61253;DHT22;47127;47.516;8.596;2024-02-28T07:09:33;8.50;99.90
61253;DHT22;47127;47.516;8.596;2024-02-28T07:11:59;8.50;99.90
61253;DHT22;47127;47.516;8.596;2024-02-28T07:14:26;8.50;99.90
61253;DHT22;47127;47.516;8.596;2024-02-28T07:16:52;8.50;99.90
61253;DHT22;47127;47.516;8.596;2024-02-28T07:19:18;8.50;99.90
61253;DHT22;47127;47.516;8.596;2024-02-28T07:21:45;7.60;99.90
61253;DHT22;47127;47.516;8.596;2024-02-28T07:24:10;8.40;99.90
61253;DHT22;47127;47.516;8.596;2024-02-28T07:26:36;8.30;99.90
61253;DHT22;47127;47.516;8.596;2024-02-28T07:29:05;8.40;99.90
61253;DHT22;47127;47.516;8.596;2024-02-28T07:31:31;8.40;99.90
61253;DHT22;47127;47.516;8.596;2024-02-28T07:33:57;8.50;99.90
61253;DHT22;47127;47.516;8.596;2024-02-28T07:36:22;8.60;99.90
61253;DHT22;47127;47.516;8.596;2024-02-28T07:38:48;8.50;99.90
61253;DHT22;47127;47.516;8.596;2024-02-28T07:41:13;8.60;99.90
61253;DHT22;47127;47.516;8.596;2024-02-28T07:43:42;8.50;99.90
61253;DHT22;47127;47.516;8.596;2024-02-28T07:46:09;8.40;99.90
61253;DHT22;47127;47.516;8.596;2024-02-28T07:48:36;8.50;99.90
61253;DHT22;47127;47.516;8.596;2024-02-28T07:51:04;8.50;99.90
61253;DHT22;47127;47.516;8.596;2024-02-28T07:53:30;8.50;99.90
61253;DHT22;47127;47.516;8.596;2024-02-28T07:55:56;8.50;99.90
61253;DHT22;47127;47.516;8.596;2024-02-28T07:58:21;8.40;99.90
61253;DHT22;47127;47.516;8.596;2024-02-28T08:00:47;8.60;99.90
61253;DHT22;47127;47.516;8.596;2024-02-28T08:03:12;8.60;99.90
61253;DHT22;47127;47.516;8.596;2024-02-28T08:05:38;8.60;99.90
61253;DHT22;47127;47.516;8.596;2024-02-28T08:08:08;8.70;99.90
61253;DHT22;47127;47.516;8.596;2024-02-28T08:10:34;8.70;99.90
61253;DHT22;47127;47.516;8.596;2024-02-28T08:13:01;8.70;99.90
61253;DHT22;47127;47.516;8.596;2024-02-28T08:15:27;8.80;99.90
61253;DHT22;47127;47.516;8.596;2024-02-28T08:17:52;8.80;99.90
61253;DHT22;47127;47.516;8.596;2024-02-28T08:20:19;8.90;99.90
61253;DHT22;47127;47.516;8.596;2024-02-28T08:22:45;8.60;99.90
61253;DHT22;47127;47.516;8.596;2024-02-28T08:25:11;8.70;99.90
61253;DHT22;47127;47.516;8.596;2024-02-28T08:27:39;8.60;99.90
61253;DHT22;47127;47.516;8.596;2024-02-28T08:30:05;8.60;99.90
61253;DHT22;47127;47.516;8.596;2024-02-28T08:32:32;8.60;99.90
61253;DHT22;47127;47.516;8.596;2024-02-28T08:34:58;8.80;99.90
61253;DHT22;47127;47.516;8.596;2024-02-28T08:37:24;8.70;99.90
61253;DHT22;47127;47.516;8.596;2024-02-28T08:39:50;8.80;99.90
61253;DHT22;47127;47.516;8.596;2024-02-28T08:42:15;8.90;99.90
61253;DHT22;47127;47.516;8.596;2024-02-28T08:44:41;8.90;99.90
61253;DHT22;47127;47.516;8.596;2024-02-28T08:47:07;8.90;99.90
61253;DHT22;47127;47.516;8.596;2024-02-28T08:49:38;9.00;99.90
61253;DHT22;47127;47.516;8.596;2024-02-28T08:52:05;8.90;99.90
61253;DHT22;47127;47.516;8.596;2024-02-28T08:54:30;7.80;99.90
61253;DHT22;47127;47.516;8.596;2024-02-28T08:56:56;9.00;99.90
61253;DHT22;47127;47.516;8.596;2024-02-28T08:59:21;8.90;99.90
61253;DHT22;47127;47.516;8.596;2024-02-28T09:01:48;8.80;99.90
61253;DHT22;47127;47.516;8.596;2024-02-28T09:04:14;8.90;99.90
61253;DHT22;47127;47.516;8.596;2024-02-28T09:06:39;8.90;99.90
61253;DHT22;47127;47.516;8.596;2024-02-28T09:09:05;8.70;99.90
61253;DHT22;47127;47.516;8.596;2024-02-28T09:11:31;8.80;99.90
61253;DHT22;47127;47.516;8.596;2024-02-28T09:13:56;9.00;99.90
61253;DHT22;47127;47.516;8.596;2024-02-28T09:16:22;8.90;99.90
61253;DHT22;47127;47.516;8.596;2024-02-28T09:18:47;9.00;99.90
61253;DHT22;47127;47.516;8.596;2024-02-28T09:21:13;9.00;99.90
61253;DHT22;47127;47.516;8.596;2024-02-28T09:23:40;8.90;99.90
61253;DHT22;47127;47.516;8.596;2024-02-28T09:26:06;9.10;99.90
61253;DHT22;47127;47.516;8.596;2024-02-28T09:28:32;8.90;99.90
61253;DHT22;47127;47.516;8.596;2024-02-28T09:30:57;9.00;99.90
61253;DHT22;47127;47.516;8.596;2024-02-28T09:33:23;9.20;99.90
61253;DHT22;47127;47.516;8.596;2024-02-28T09:35:49;9.30;99.90
61253;DHT22;47127;47.516;8.596;2024-02-28T09:38:14;9.40;99.90
61253;DHT22;47127;47.516;8.596;2024-02-28T09:40:40;9.30;99.90
61253;DHT22;47127;47.516;8.596;2024-02-28T09:43:17;9.50;99.90
61253;DHT22;47127;47.516;8.596;2024-02-28T09:45:44;9.50;99.90
61253;DHT22;47127;47.516;8.596;2024-02-28T09:48:10;9.60;99.90
61253;DHT22;47127;47.516;8.596;2024-02-28T09:50:37;9.60;99.90
61253;DHT22;47127;47.516;8.596;2024-02-28T09:53:04;9.70;99.90
61253;DHT22;47127;47.516;8.596;2024-02-28T09:55:29;9.70;99.90
61253;DHT22;47127;47.516;8.596;2024-02-28T09:57:55;9.90;99.90
61253;DHT22;47127;47.516;8.596;2024-02-28T10:00:22;9.90;99.90
61253;DHT22;47127;47.516;8.596;2024-02-28T10:02:48;9.80;99.90
61253;DHT22;47127;47.516;8.596;2024-02-28T10:05:15;9.80;99.90
61253;DHT22;47127;47.516;8.596;2024-02-28T10:07:42;9.90;99.90
61253;DHT22;47127;47.516;8.596;2024-02-28T10:10:07;10.00;99.90
61253;DHT22;47127;47.516;8.596;2024-02-28T10:12:33;9.90;99.90
61253;DHT22;47127;47.516;8.596;2024-02-28T10:15:01;10.00;99.90
61253;DHT22;47127;47.516;8.596;2024-02-28T10:17:26;10.00;99.90
61253;DHT22;47127;47.516;8.596;2024-02-28T10:19:52;9.80;99.90
61253;DHT22;47127;47.516;8.596;2024-02-28T10:22:18;9.60;99.90
61253;DHT22;47127;47.516;8.596;2024-02-28T10:24:44;9.50;99.90
61253;DHT22;47127;47.516;8.596;2024-02-28T10:27:10;9.50;99.90
61253;DHT22;47127;47.516;8.596;2024-02-28T10:29:35;9.60;99.90
61253;DHT22;47127;47.516;8.596;2024-02-28T10:32:01;9.60;99.90
61253;DHT22;47127;47.516;8.596;2024-02-28T10:34:29;9.70;99.90
61253;DHT22;47127;47.516;8.596;2024-02-28T10:36:57;9.70;99.90
61253;DHT22;47127;47.516;8.596;2024-02-28T10:39:23;9.60;99.90
61253;DHT22;47127;47.516;8.596;2024-02-28T10:41:50;9.50;99.90
61253;DHT22;47127;47.516;8.596;2024-02-28T10:44:18;9.40;99.90
61253;DHT22;47127;47.516;8.596;2024-02-28T10:46:49;9.30;99.90
61253;DHT22;47127;47.516;8.596;2024-02-28T10:49:15;9.30;99.90
61253;DHT22;47127;47.516;8.596;2024-02-28T10:51:45;9.40;99.90
61253;DHT22;47127;47.516;8.596;2024-02-28T10:54:12;9.40;99.90
61253;DHT22;47127;47.516;8.596;2024-02-28T10:56:39;9.40;99.90
61253;DHT22;47127;47.516;8.596;2024-02-28T10:59:09;9.40;99.90
61253;DHT22;47127;47.516;8.596;2024-02-28T11:01:36;9.50;99.90
61253;DHT22;47127;47.516;8.596;2024-02-28T11:04:03;9.50;99.90
61253;DHT22;47127;47.516;8.596;2024-02-28T11:06:30;9.70;99.90
61253;DHT22;47127;47.516;8.596;2024-02-28T11:09:02;9.70;99.90
61253;DHT22;47127;47.516;8.596;2024-02-28T11:11:31;9.70;99.90
61253;DHT22;47127;47.516;8.596;2024-02-28T11:13:58;9.60;99.90
61253;DHT22;47127;47.516;8.596;2024-02-28T11:16:30;9.60;99.90
61253;DHT22;47127;47.516;8.596;2024-02-28T11:18:56;9.60;99.90
61253;DHT22;47127;47.516;8.596;2024-02-28T11:21:26;9.70;99.90
61253;DHT22;47127;47.516;8.596;2024-02-28T11:24:00;9.70;99.90
61253;DHT22;47127;47.516;8.596;2024-02-28T11:26:27;9.80;99.90
61253;DHT22;47127;47.516;8.596;2024-02-28T11:28:54;9.90;99.90
61253;DHT22;47127;47.516;8.596;2024-02-28T11:31:20;9.80;99.90
61253;DHT22;47127;47.516;8.596;2024-02-28T11:33:46;9.90;99.90
61253;DHT22;47127;47.516;8.596;2024-02-28T11:36:12;10.10;99.90
61253;DHT22;47127;47.516;8.596;2024-02-28T11:38:40;10.20;99.90
61253;DHT22;47127;47.516;8.596;2024-02-28T11:41:08;10.30;99.90
61253;DHT22;47127;47.516;8.596;2024-02-28T11:43:34;10.40;99.90
61253;DHT22;47127;47.516;8.596;2024-02-28T11:46:08;10.40;99.90
61253;DHT22;47127;47.516;8.596;2024-02-28T11:48:34;10.30;99.90
61253;DHT22;47127;47.516;8.596;2024-02-28T11:50:59;10.10;99.90
61253;DHT22;47127;47.516;8.596;2024-02-28T11:53:25;10.10;99.90
61253;DHT22;47127;47.516;8.596;2024-02-28T11:55:54;10.00;99.90
61253;DHT22;47127;47.516;8.596;2024-02-28T11:58:21;10.20;99.90
61253;DHT22;47127;47.516;8.596;2024-02-28T12:00:51;10.20;99.90
61253;DHT22;47127;47.516;8.596;2024-02-28T12:03:23;10.20;99.90
61253;DHT22;47127;47.516;8.596;2024-02-28T12:05:49;10.10;99.90
61253;DHT22;47127;47.516;8.596;2024-02-28T12:08:17;10.10;99.90
61253;DHT22;47127;47.516;8.596;2024-02-28T12:10:44;10.00;99.90
61253;DHT22;47127;47.516;8.596;2024-02-28T12:13:10;10.10;99.90
61253;DHT22;47127;47.516;8.596;2024-02-28T12:15:39;10.20;99.90
61253;DHT22;47127;47.516;8.596;2024-02-28T12:18:10;10.30;99.90
61253;DHT22;47127;47.516;8.596;2024-02-28T12:20:36;10.40;99.90
61253;DHT22;47127;47.516;8.596;2024-02-28T12:23:05;10.30;99.90
61253;DHT22;47127;47.516;8.596;2024-02-28T12:25:30;10.20;99.90
61253;DHT22;47127;47.516;8.596;2024-02-28T12:27:56;10.10;99.90
61253;DHT22;47127;47.516;8.596;2024-02-28T12:30:22;9.90;99.90
61253;DHT22;47127;47.516;8.596;2024-02-28T12:32:47;9.80;99.90
61253;DHT22;47127;47.516;8.596;2024-02-28T12:35:13;9.80;99.90
61253;DHT22;47127;47.516;8.596;2024-02-28T12:37:39;9.90;99.90
61253;DHT22;47127;47.516;8.596;2024-02-28T12:40:05;9.80;99.90
61253;DHT22;47127;47.516;8.596;2024-02-28T12:42:31;10.00;99.90
61253;DHT22;47127;47.516;8.596;2024-02-28T12:44:57;10.00;99.90
61253;DHT22;47127;47.516;8.596;2024-02-28T12:47:23;9.90;99.90
61253;DHT22;47127;47.516;8.596;2024-02-28T12:49:48;10.00;99.90
61253;DHT22;47127;47.516;8.596;2024-02-28T12:52:14;10.10;99.90
61253;DHT22;47127;47.516;8.596;2024-02-28T12:54:39;10.10;99.90
61253;DHT22;47127;47.516;8.596;2024-02-28T12:57:05;10.10;99.90
61253;DHT22;47127;47.516;8.596;2024-02-28T12:59:31;10.10;99.90
61253;DHT22;47127;47.516;8.596;2024-02-28T13:01:58;10.10;99.90
61253;DHT22;47127;47.516;8.596;2024-02-28T13:04:24;10.00;99.90
61253;DHT22;47127;47.516;8.596;2024-02-28T13:06:51;10.00;99.90
61253;DHT22;47127;47.516;8.596;2024-02-28T13:09:18;10.00;99.90
61253;DHT22;47127;47.516;8.596;2024-02-28T13:11:44;10.00;99.90
61253;DHT22;47127;47.516;8.596;2024-02-28T13:14:09;10.00;99.90
61253;DHT22;47127;47.516;8.596;2024-02-28T13:16:38;10.00;99.90
61253;DHT22;47127;47.516;8.596;2024-02-28T13:19:03;10.00;99.90
61253;DHT22;47127;47.516;8.596;2024-02-28T13:21:30;10.10;99.90
61253;DHT22;47127;47.516;8.596;2024-02-28T13:23:58;10.30;99.90
61253;DHT22;47127;47.516;8.596;2024-02-28T13:26:24;10.30;99.90
61253;DHT22;47127;47.516;8.596;2024-02-28T13:28:49;10.30;99.90
61253;DHT22;47127;47.516;8.596;2024-02-28T13:31:15;10.50;99.90
61253;DHT22;47127;47.516;8.596;2024-02-28T13:33:41;10.50;99.90
61253;DHT22;47127;47.516;8.596;2024-02-28T13:36:07;10.50;99.90
61253;DHT22;47127;47.516;8.596;2024-02-28T13:38:33;10.50;99.90
61253;DHT22;47127;47.516;8.596;2024-02-28T13:40:58;10.40;99.90
61253;DHT22;47127;47.516;8.596;2024-02-28T13:43:25;10.50;99.90
61253;DHT22;47127;47.516;8.596;2024-02-28T13:45:51;10.40;99.90
61253;DHT22;47127;47.516;8.596;2024-02-28T13:48:18;10.50;99.90
61253;DHT22;47127;47.516;8.596;2024-02-28T13:50:44;10.50;99.90
61253;DHT22;47127;47.516;8.596;2024-02-28T13:53:11;10.60;99.90
61253;DHT22;47127;47.516;8.596;2024-02-28T13:55:36;10.70;99.90
61253;DHT22;47127;47.516;8.596;2024-02-28T13:58:03;10.70;99.90
61253;DHT22;47127;47.516;8.596;2024-02-28T14:00:29;10.70;99.90
61253;DHT22;47127;47.516;8.596;2024-02-28T14:02:55;10.60;99.90
61253;DHT22;47127;47.516;8.596;2024-02-28T14:05:20;10.60;99.90
61253;DHT22;47127;47.516;8.596;2024-02-28T14:07:46;10.50;99.90
61253;DHT22;47127;47.516;8.596;2024-02-28T14:10:12;10.50;99.90
61253;DHT22;47127;47.516;8.596;2024-02-28T14:12:37;10.60;99.90
61253;DHT22;47127;47.516;8.596;2024-02-28T14:15:04;10.80;99.90
61253;DHT22;47127;47.516;8.596;2024-02-28T14:17:30;10.70;99.90
61253;DHT22;47127;47.516;8.596;2024-02-28T14:19:56;10.80;99.90
61253;DHT22;47127;47.516;8.596;2024-02-28T14:22:21;10.90;99.90
61253;DHT22;47127;47.516;8.596;2024-02-28T14:24:47;11.10;99.90
61253;DHT22;47127;47.516;8.596;2024-02-28T14:27:12;11.30;99.90
61253;DHT22;47127;47.516;8.596;2024-02-28T14:29:38;11.40;99.90
61253;DHT22;47127;47.516;8.596;2024-02-28T14:32:04;11.60;99.90
61253;DHT22;47127;47.516;8.596;2024-02-28T14:34:33;12.00;99.90
61253;DHT22;47127;47.516;8.596;2024-02-28T14:36:59;12.60;99.90
61253;DHT22;47127;47.516;8.596;2024-02-28T14:39:24;12.70;99.90
61253;DHT22;47127;47.516;8.596;2024-02-28T14:41:50;12.80;99.90
61253;DHT22;47127;47.516;8.596;2024-02-28T14:44:15;12.80;99.90
61253;DHT22;47127;47.516;8.596;2024-02-28T14:46:42;13.00;99.90
61253;DHT22;47127;47.516;8.596;2024-02-28T14:49:08;13.10;99.90
61253;DHT22;47127;47.516;8.596;2024-02-28T14:51:34;13.00;99.90
61253;DHT22;47127;47.516;8.596;2024-02-28T14:54:01;13.20;99.90
61253;DHT22;47127;47.516;8.596;2024-02-28T14:56:26;13.20;99.90
61253;DHT22;47127;47.516;8.596;2024-02-28T14:58:55;13.10;99.90
61253;DHT22;47127;47.516;8.596;2024-02-28T15:01:22;13.00;99.90
61253;DHT22;47127;47.516;8.596;2024-02-28T15:03:50;12.90;99.90
61253;DHT22;47127;47.516;8.596;2024-02-28T15:06:15;12.50;99.90
61253;DHT22;47127;47.516;8.596;2024-02-28T15:08:41;12.40;99.90
61253;DHT22;47127;47.516;8.596;2024-02-28T15:11:06;12.30;99.90
61253;DHT22;47127;47.516;8.596;2024-02-28T15:13:33;12.20;99.90
61253;DHT22;47127;47.516;8.596;2024-02-28T15:15:58;12.00;99.90
61253;DHT22;47127;47.516;8.596;2024-02-28T15:18:24;11.80;99.90
61253;DHT22;47127;47.516;8.596;2024-02-28T15:20:49;11.70;99.90
61253;DHT22;47127;47.516;8.596;2024-02-28T15:23:15;11.60;99.90
61253;DHT22;47127;47.516;8.596;2024-02-28T15:25:41;11.50;99.90
61253;DHT22;47127;47.516;8.596;2024-02-28T15:28:07;11.40;99.90
61253;DHT22;47127;47.516;8.596;2024-02-28T15:30:32;11.30;99.90
61253;DHT22;47127;47.516;8.596;2024-02-28T15:32:58;11.30;99.90
61253;DHT22;47127;47.516;8.596;2024-02-28T15:35:24;11.30;99.90